El Rito, NM (87530)

1:16 AM MST on February 28, 2017 (GMT -0700)
El Ojito | | Change Station

Elev 7359 ft 36.38 °N, 106.05 °W | Updated 2 minutes ago

Snow
Snow
32.4 °F
Feels Like 32 °F
N
0.0
Wind Variable Wind from WNW
Gusts 0.0 mph

Today
High -- | Low -- °F
--% Chance of Precip.
Yesterday
High -- | Low -- °F
Precip. -- in
Pressure 29.86 in
Visibility 4.0 miles
Clouds Scattered Clouds 1000 ft
Mostly Cloudy 1700 ft
Overcast 4600 ft
Windchill 32 °F
Dew Point 31 °F
Humidity 93%
Rainfall 0.00 in
Snow Depth Not available.
6:36 AM 5:58 PM
Waxing Crescent, 4% visible
METAR KLAM 280755Z AUTO 18010G26KT 4SM -RA SCT010 BKN017 OVC046 02/00 A2986 RMK AO2 P0004 T00150003
Pressure 29.86 in
Visibility 4.0 miles
Clouds Scattered Clouds 1000 ft
Mostly Cloudy 1700 ft
Overcast 4600 ft
Windchill 32 °F
Dew Point 31 °F
Humidity 93%
Rainfall 0.00 in
Snow Depth Not available.
6:36 AM 5:58 PM
Waxing Crescent, 4% visible
METAR KLAM 280755Z AUTO 18010G26KT 4SM -RA SCT010 BKN017 OVC046 02/00 A2986 RMK AO2 P0004 T00150003

Get Your Daily Forecast Email!

Thanks for signing up!

Be on the lookout for a verification email in your inbox.

You'll start receiving the daily forecast at 8 AM.

×

10-Day Weather Forecast

Almanac

Astronomy

Feb. 28, 2017 Rise Set
Actual Time
Civil Twilight
Nautical Twilight
Astronomical Twilight
Moon
Length of Visible Light
Length of Day
Tomorrow will be .
, % of the Moon is Illuminated

Today's Extremes

State Highs State Lows

Community

WunderPhotos

Upload Photos

1,962,540 photos uploaded!

WunderBlog® & News

Nearby

Air Quality

  Air Quality AQ Index Pollutant
Not available.

Snow Depth

Station Depth Elevation

Earthquake Activity

City Distance Mag. Time & Date
Minimum magnitude displayed is 2.5.

Coastal Water Temperatures

Place Temperature

Stations

Nearby Weather Stations

Station Location Temp. Windchill Dew Point Humidity Wind Precip. Elev Updated Type
                   

Watches & Warnings

There are currently no watches in effect.